Time;durP1;ratioP1;P1;durP2;ratioP2;P2;SDS_P1;SDS_P2;PMS_P1;PMS_P2;Temp;Humidity;BMP_temperature;BMP_pressure;BME280_temperature;BME280_humidity;BME280_pressure;Samples;Min_cycle;Max_cycle;Signal;HPM_P1;HPM_P2
2022/09/02 00:02:02;;;;;;;0.70;0.60;;;;;;;-144.22;100.00;60274.75;6230866;28;20262;-66
2022/09/02 00:05:05;;;;;;;1.43;0.80;;;;;;;-144.22;100.00;60274.75;6230634;28;20268;-66
2022/09/02 00:08:09;;;;;;;2.77;0.87;;;;;;;-144.22;100.00;60274.75;6231360;28;20329;-66
2022/09/02 00:11:21;;;;;;;0.80;0.80;;;;;;;-144.22;100.00;60274.75;6231407;28;20280;-65
2022/09/02 00:14:28;;;;;;;1.03;0.83;;;;;;;-144.22;100.00;60274.75;6230588;28;21015;-66
2022/09/02 00:17:30;;;;;;;1.70;1.50;;;;;;;-144.22;100.00;60274.75;6231878;28;20253;-66
2022/09/02 00:20:32;;;;;;;2.80;1.30;;;;;;;-144.22;100.00;60274.75;6232128;28;20254;-66
2022/09/02 00:23:35;;;;;;;3.33;1.57;;;;;;;-144.22;100.00;60274.75;6230517;28;20229;-66
2022/09/02 00:26:38;;;;;;;3.30;1.30;;;;;;;-144.22;100.00;60274.75;6214260;28;20597;-66
2022/09/02 00:29:40;;;;;;;1.30;1.20;;;;;;;-144.22;100.00;60274.75;6230230;28;20229;-66
2022/09/02 00:32:42;;;;;;;2.37;0.97;;;;;;;-144.22;100.00;60274.75;6230261;28;20254;-66
2022/09/02 00:35:44;;;;;;;1.40;0.90;;;;;;;-144.22;100.00;60274.75;6212645;28;20784;-66
2022/09/02 00:38:46;;;;;;;2.57;0.83;;;;;;;-144.22;100.00;60274.75;6212703;28;20604;-66
2022/09/02 00:41:49;;;;;;;0.80;0.80;;;;;;;-144.22;100.00;60274.75;6197879;28;20692;-66
2022/09/02 00:44:52;;;;;;;1.07;0.83;;;;;;;-144.22;100.00;60274.75;6230360;28;20252;-66
2022/09/02 00:47:54;;;;;;;1.27;0.90;;;;;;;-144.22;100.00;60274.75;6230486;28;20627;-66
2022/09/02 00:50:56;;;;;;;0.97;0.87;;;;;;;-144.22;100.00;60274.75;6212085;28;20233;-66
2022/09/02 00:54:00;;;;;;;1.93;1.00;;;;;;;-144.22;100.00;60274.75;6212867;28;20291;-66
2022/09/02 00:57:08;;;;;;;0.77;0.70;;;;;;;-144.22;100.00;60274.75;6212184;28;20303;-67
2022/09/02 01:04:45;;;;;;;2.30;1.00;;;;;;;-144.22;100.00;60274.75;6220367;28;20621;-66
2022/09/02 01:07:50;;;;;;;0.70;0.70;;;;;;;-144.22;100.00;60274.75;6229325;28;20763;-67
2022/09/02 01:10:54;;;;;;;3.00;1.00;;;;;;;-144.22;100.00;60274.75;6213350;28;20636;-66
2022/09/02 01:13:58;;;;;;;3.10;0.70;;;;;;;-144.22;100.00;60274.75;6230235;28;20253;-67
2022/09/02 01:17:01;;;;;;;0.77;0.77;;;;;;;-144.22;100.00;60274.75;6210994;28;20807;-66
2022/09/02 01:20:10;;;;;;;1.73;0.97;;;;;;;-144.22;100.00;60274.75;6229070;28;20278;-67
2022/09/02 01:23:16;;;;;;;0.97;0.70;;;;;;;-144.22;100.00;60274.75;6229058;28;20603;-66
2022/09/02 01:26:19;;;;;;;2.23;1.00;;;;;;;-144.22;100.00;60274.75;6212259;28;20227;-66
2022/09/02 01:29:22;;;;;;;2.30;0.70;;;;;;;-144.22;100.00;60274.75;6229202;28;20722;-66
2022/09/02 01:32:27;;;;;;;3.07;0.80;;;;;;;-144.22;100.00;60274.75;6230017;28;20220;-66
2022/09/02 01:35:29;;;;;;;1.27;0.60;;;;;;;-144.22;100.00;60274.75;6211974;28;20735;-66
2022/09/02 01:38:31;;;;;;;1.40;1.00;;;;;;;-144.22;100.00;60274.75;6228161;28;20270;-66
2022/09/02 01:41:33;;;;;;;1.40;0.80;;;;;;;-144.22;100.00;60274.75;6210840;28;20317;-66
2022/09/02 01:44:42;;;;;;;0.80;0.80;;;;;;;-144.22;100.00;60274.75;6194561;28;20239;-66
2022/09/02 01:47:45;;;;;;;0.80;0.80;;;;;;;-144.22;100.00;60274.75;6227714;28;20230;-66
2022/09/02 01:50:53;;;;;;;3.87;0.83;;;;;;;-144.22;100.00;60274.75;6231741;28;20230;-66
2022/09/02 01:53:55;;;;;;;0.80;0.80;;;;;;;-144.22;100.00;60274.75;6228449;28;20228;-66
2022/09/02 01:56:57;;;;;;;2.70;0.90;;;;;;;-144.22;100.00;60274.75;6228646;28;20322;-66
2022/09/02 02:00:00;;;;;;;0.90;0.70;;;;;;;-144.22;100.00;60274.75;6227820;28;20625;-66
2022/09/02 02:03:13;;;;;;;1.63;0.80;;;;;;;-144.22;100.00;60274.75;6228210;28;20280;-67
2022/09/02 02:06:16;;;;;;;1.00;0.80;;;;;;;-144.22;100.00;60274.75;6211433;28;20672;-66
2022/09/02 02:09:20;;;;;;;1.30;0.80;;;;;;;-144.22;100.00;60274.75;6210953;28;20334;-66
2022/09/02 02:12:24;;;;;;;1.23;0.80;;;;;;;-144.22;100.00;60274.75;6211114;28;20722;-67
2022/09/02 02:15:28;;;;;;;1.47;1.07;;;;;;;-144.22;100.00;60274.75;6228695;28;20680;-67
2022/09/02 02:18:29;;;;;;;1.10;1.00;;;;;;;-144.22;100.00;60274.75;6210990;28;20239;-66
2022/09/02 02:21:33;;;;;;;3.10;0.80;;;;;;;-144.22;100.00;60274.75;6233172;28;20232;-66
2022/09/02 02:24:35;;;;;;;0.80;0.80;;;;;;;-144.22;100.00;60274.75;6233912;28;20234;-67
2022/09/02 02:27:37;;;;;;;1.13;0.80;;;;;;;-144.22;100.00;60274.75;6233612;28;20718;-67
2022/09/02 02:30:41;;;;;;;1.33;1.00;;;;;;;-144.22;100.00;60274.75;6232039;28;20227;-66
2022/09/02 02:33:45;;;;;;;0.70;0.70;;;;;;;-144.22;100.00;60274.75;6234244;28;20707;-66
2022/09/02 02:36:47;;;;;;;2.83;0.97;;;;;;;-144.22;100.00;60274.75;6199429;28;20238;-66
2022/09/02 02:39:49;;;;;;;1.27;0.90;;;;;;;-144.22;100.00;60274.75;6232796;28;20236;-66
2022/09/02 02:42:52;;;;;;;1.37;1.20;;;;;;;-144.22;100.00;60274.75;6233642;28;20239;-66
2022/09/02 02:45:57;;;;;;;1.43;1.10;;;;;;;-144.22;100.00;60274.75;6235542;28;20231;-67
2022/09/02 02:48:59;;;;;;;2.00;0.80;;;;;;;-144.22;100.00;60274.75;6243997;28;20349;-66
2022/09/02 02:52:01;;;;;;;1.57;1.00;;;;;;;-144.22;100.00;60274.75;6236758;28;20231;-66
2022/09/02 02:55:05;;;;;;;2.37;0.80;;;;;;;-144.22;100.00;60274.75;6215391;28;20227;-67
2022/09/02 02:58:10;;;;;;;0.97;0.83;;;;;;;-144.22;100.00;60274.75;6214437;28;20242;-66
2022/09/02 03:01:17;;;;;;;1.37;0.90;;;;;;;-144.22;100.00;60274.75;6233497;28;20263;-66
2022/09/02 03:04:20;;;;;;;1.60;1.00;;;;;;;-144.22;100.00;60274.75;6206999;28;20789;-66
2022/09/02 03:07:25;;;;;;;2.03;0.90;;;;;;;-144.22;100.00;60274.75;6198992;28;20240;-66
2022/09/02 03:10:31;;;;;;;1.87;1.03;;;;;;;-144.22;100.00;60274.75;6203141;28;20244;-67
2022/09/02 03:13:33;;;;;;;2.30;1.20;;;;;;;-144.22;100.00;60274.75;6208246;28;20294;-66
2022/09/02 03:16:36;;;;;;;1.07;0.97;;;;;;;-144.22;100.00;60274.75;6207112;28;20262;-66
2022/09/02 03:19:38;;;;;;;3.10;1.10;;;;;;;-144.22;100.00;60274.75;6207592;28;20247;-67
2022/09/02 03:22:42;;;;;;;0.63;0.63;;;;;;;-144.22;100.00;60274.75;6206781;28;20227;-66
2022/09/02 03:25:45;;;;;;;2.33;1.07;;;;;;;-144.22;100.00;60274.75;6211880;28;20236;-65
2022/09/02 03:29:09;;;;;;;1.10;0.97;;;;;;;-144.22;100.00;60274.75;6208255;28;20578;-67
2022/09/02 03:32:11;;;;;;;1.33;1.13;;;;;;;-144.22;100.00;60274.75;6208106;28;20249;-67
2022/09/02 03:35:18;;;;;;;1.27;1.03;;;;;;;-144.22;100.00;60274.75;6206531;28;20707;-66
2022/09/02 03:38:20;;;;;;;1.13;1.03;;;;;;;-144.22;100.00;60274.75;6209092;28;20236;-66
2022/09/02 03:41:23;;;;;;;2.77;1.27;;;;;;;-144.22;100.00;60274.75;6209438;28;20324;-66
2022/09/02 03:44:27;;;;;;;1.50;1.07;;;;;;;-144.22;100.00;60274.75;6205993;28;20723;-67
2022/09/02 03:47:29;;;;;;;1.97;1.10;;;;;;;-144.22;100.00;60274.75;6207331;28;20261;-67
2022/09/02 03:50:38;;;;;;;2.97;1.37;;;;;;;-144.22;100.00;60274.75;6207238;28;20228;-67
2022/09/02 03:53:41;;;;;;;2.13;1.10;;;;;;;-144.22;100.00;60274.75;6206526;28;20601;-67
2022/09/02 03:56:44;;;;;;;1.73;1.50;;;;;;;-144.22;100.00;60274.75;6207708;28;20329;-67
2022/09/02 03:59:48;;;;;;;0.90;0.90;;;;;;;-144.22;100.00;60274.75;6206060;28;20244;-67
2022/09/02 04:02:53;;;;;;;1.83;1.23;;;;;;;-144.22;100.00;60274.75;6232336;28;20231;-67
2022/09/02 04:05:55;;;;;;;2.73;1.03;;;;;;;-144.22;100.00;60274.75;6209001;28;20240;-67
2022/09/02 04:09:01;;;;;;;3.40;1.00;;;;;;;-144.22;100.00;60274.75;6213939;28;20235;-67
2022/09/02 04:12:05;;;;;;;1.27;1.17;;;;;;;-144.22;100.00;60274.75;6212469;28;20699;-66
2022/09/02 04:15:10;;;;;;;2.40;1.37;;;;;;;-144.22;100.00;60274.75;6231202;28;20322;-66
2022/09/02 04:18:13;;;;;;;5.97;1.30;;;;;;;-144.22;100.00;60274.75;6236485;28;20223;-66
2022/09/02 04:21:15;;;;;;;1.27;1.17;;;;;;;-144.22;100.00;60274.75;6213272;28;20200;-66
2022/09/02 04:24:17;;;;;;;2.97;1.10;;;;;;;-144.22;100.00;60274.75;6213912;28;20199;-66
2022/09/02 04:27:23;;;;;;;0.93;0.93;;;;;;;-144.22;100.00;60274.75;6230925;28;20314;-67
2022/09/02 04:30:25;;;;;;;1.13;0.93;;;;;;;-144.22;100.00;60274.75;6212813;28;20227;-66
2022/09/02 04:33:27;;;;;;;2.13;1.30;;;;;;;-144.22;100.00;60274.75;6231506;28;20904;-66
2022/09/02 04:36:30;;;;;;;1.70;1.30;;;;;;;-144.22;100.00;60274.75;6211956;28;20837;-66
2022/09/02 04:39:36;;;;;;;1.27;1.00;;;;;;;-144.22;100.00;60274.75;6212769;28;20242;-66
2022/09/02 04:42:38;;;;;;;1.57;1.20;;;;;;;-144.22;100.00;60274.75;6211758;28;20230;-66
2022/09/02 04:45:44;;;;;;;2.03;1.50;;;;;;;-144.22;100.00;60274.75;6212074;28;20231;-66
2022/09/02 04:48:50;;;;;;;2.30;1.40;;;;;;;-144.22;100.00;60274.75;6212389;28;20327;-66
2022/09/02 04:51:53;;;;;;;2.07;1.10;;;;;;;-144.22;100.00;60274.75;6195597;28;20312;-66
2022/09/02 04:54:57;;;;;;;1.30;1.10;;;;;;;-144.22;100.00;60274.75;6206717;28;20767;-66
2022/09/02 04:57:59;;;;;;;1.67;1.30;;;;;;;-144.22;100.00;60274.75;6227082;28;20228;-66
2022/09/02 05:01:10;;;;;;;1.87;1.10;;;;;;;-144.22;100.00;60274.75;6213171;28;20401;-66
2022/09/02 05:04:13;;;;;;;1.77;1.10;;;;;;;-144.22;100.00;60274.75;6205409;28;20247;-66
2022/09/02 05:07:19;;;;;;;2.33;1.33;;;;;;;-144.22;100.00;60274.75;6203284;28;20317;-66
2022/09/02 05:10:22;;;;;;;2.30;1.10;;;;;;;-144.22;100.00;60274.75;6203148;28;20239;-66
2022/09/02 05:13:24;;;;;;;1.47;1.20;;;;;;;-144.22;100.00;60274.75;6210128;28;20234;-67
2022/09/02 05:16:31;;;;;;;2.33;1.27;;;;;;;-144.22;100.00;60274.75;6211743;28;20238;-67
2022/09/02 05:19:34;;;;;;;1.10;1.00;;;;;;;-144.22;100.00;60274.75;6211041;28;20250;-67
2022/09/02 05:22:36;;;;;;;3.07;1.40;;;;;;;-144.22;100.00;60274.75;6211497;28;20235;-66
2022/09/02 05:25:40;;;;;;;1.67;1.30;;;;;;;-144.22;100.00;60274.75;6211544;28;20857;-66
2022/09/02 05:28:43;;;;;;;1.33;1.00;;;;;;;-144.22;100.00;60274.75;6228670;28;20231;-66
2022/09/02 05:31:46;;;;;;;1.63;1.00;;;;;;;-144.22;100.00;60274.75;6229507;28;20259;-66
2022/09/02 05:34:49;;;;;;;1.57;0.97;;;;;;;-144.22;100.00;60274.75;6228323;28;20590;-66
2022/09/02 05:37:51;;;;;;;1.30;0.93;;;;;;;-144.22;100.00;60274.75;6210661;28;20287;-67
2022/09/02 05:41:06;;;;;;;2.60;1.13;;;;;;;-144.22;100.00;60274.75;6211754;28;20230;-66
2022/09/02 05:44:09;;;;;;;1.17;1.07;;;;;;;-144.22;100.00;60274.75;6225798;28;20706;-66
2022/09/02 05:47:12;;;;;;;1.83;1.40;;;;;;;-144.22;100.00;60274.75;6235933;28;20316;-66
2022/09/02 05:50:16;;;;;;;2.10;1.30;;;;;;;-144.22;100.00;60274.75;6196645;28;20702;-66
2022/09/02 05:53:21;;;;;;;1.27;1.17;;;;;;;-144.22;100.00;60274.75;6201636;28;20307;-65
2022/09/02 05:56:24;;;;;;;1.70;1.20;;;;;;;-144.22;100.00;60274.75;6206752;28;20223;-66
2022/09/02 05:59:29;;;;;;;6.03;1.70;;;;;;;-144.22;100.00;60274.75;6228700;28;20247;-70
2022/09/02 06:02:33;;;;;;;1.87;1.30;;;;;;;-144.22;100.00;60274.75;6228688;28;20322;-69
2022/09/02 06:05:37;;;;;;;1.73;1.60;;;;;;;-144.22;100.00;60274.75;6211194;28;20548;-69
2022/09/02 06:08:52;;;;;;;1.50;1.40;;;;;;;-144.22;100.00;60274.75;6216567;28;20640;-68
2022/09/02 06:11:56;;;;;;;2.27;1.37;;;;;;;-144.22;100.00;60274.75;6212148;28;20228;-66
2022/09/02 06:15:04;;;;;;;2.70;1.63;;;;;;;-144.22;100.00;60274.75;6209590;28;20597;-66
2022/09/02 06:18:06;;;;;;;2.27;1.67;;;;;;;-144.22;100.00;60274.75;6224779;28;20218;-67
2022/09/02 06:21:10;;;;;;;3.17;1.90;;;;;;;-144.22;100.00;60274.75;6227069;28;20559;-67
2022/09/02 06:24:16;;;;;;;1.93;1.50;;;;;;;-144.22;100.00;60274.75;6202258;28;20211;-67
2022/09/02 06:27:18;;;;;;;6.07;1.97;;;;;;;-144.22;100.00;60274.75;6209469;28;20220;-66
2022/09/02 06:30:23;;;;;;;2.30;1.70;;;;;;;-144.22;100.00;60274.75;6194822;28;20259;-67
2022/09/02 06:33:25;;;;;;;4.50;1.47;;;;;;;-144.22;100.00;60274.75;6228080;28;20308;-66
2022/09/02 06:36:28;;;;;;;1.40;1.30;;;;;;;-144.22;100.00;60274.75;6228377;28;20229;-66
2022/09/02 06:39:34;;;;;;;2.70;1.90;;;;;;;-144.22;100.00;60274.75;6211032;28;20238;-66
2022/09/02 06:42:38;;;;;;;2.30;1.43;;;;;;;-144.22;100.00;60274.75;6226874;28;20596;-66
2022/09/02 06:46:04;;;;;;;1.90;1.27;;;;;;;-144.22;100.00;60274.75;6226389;28;20318;-66
2022/09/02 06:49:09;;;;;;;5.23;1.57;;;;;;;-144.22;100.00;60274.75;6209665;28;20225;-67
2022/09/02 06:52:13;;;;;;;3.90;1.30;;;;;;;-144.22;100.00;60274.75;6186094;28;20308;-67
2022/09/02 06:55:17;;;;;;;2.07;1.40;;;;;;;-144.22;100.00;60274.75;6208036;28;20332;-66
2022/09/02 06:58:19;;;;;;;2.40;1.50;;;;;;;-144.22;100.00;60274.75;6227044;28;20316;-67
2022/09/02 07:01:27;;;;;;;4.83;2.17;;;;;;;-144.22;100.00;60274.75;6193398;28;20705;-66
2022/09/02 07:07:56;;;;;;;2.43;1.40;;;;;;;-144.22;100.00;60274.75;6233025;28;20239;-66
2022/09/02 07:10:59;;;;;;;1.50;1.27;;;;;;;-144.22;100.00;60274.75;6214391;28;20231;-66
2022/09/02 07:14:02;;;;;;;2.67;1.30;;;;;;;-144.22;100.00;60274.75;6231030;28;20267;-66
2022/09/02 07:17:06;;;;;;;2.10;1.23;;;;;;;-144.22;100.00;60274.75;6213954;28;20583;-66
2022/09/02 07:20:09;;;;;;;1.33;1.20;;;;;;;-144.22;100.00;60274.75;6231891;28;20727;-66
2022/09/02 07:23:16;;;;;;;1.00;0.90;;;;;;;-144.22;100.00;60274.75;6213729;28;20243;-66
2022/09/02 07:26:18;;;;;;;2.10;1.40;;;;;;;-144.22;100.00;60274.75;6213474;28;20239;-66
2022/09/02 07:29:20;;;;;;;1.00;0.90;;;;;;;-144.22;100.00;60274.75;6214702;28;20228;-66
2022/09/02 07:32:22;;;;;;;2.93;1.10;;;;;;;-144.22;100.00;60274.75;6212940;28;20235;-66
2022/09/02 07:35:26;;;;;;;2.63;1.20;;;;;;;-144.22;100.00;60274.75;6229441;28;20235;-66
2022/09/02 07:38:30;;;;;;;1.00;0.83;;;;;;;-144.22;100.00;60274.75;6214385;28;20234;-66
2022/09/02 07:41:34;;;;;;;1.27;0.90;;;;;;;-144.22;100.00;60274.75;6212481;28;20224;-66
2022/09/02 07:44:36;;;;;;;1.73;1.00;;;;;;;-144.22;100.00;60274.75;6231439;28;20223;-65
2022/09/02 07:47:41;;;;;;;1.80;1.17;;;;;;;-144.22;100.00;60274.75;6212752;28;20233;-66
2022/09/02 07:50:46;;;;;;;2.70;1.10;;;;;;;-144.22;100.00;60274.75;6212654;28;20366;-66
2022/09/02 07:53:51;;;;;;;2.10;0.83;;;;;;;-144.22;100.00;60274.75;6230828;28;20231;-66
2022/09/02 07:56:55;;;;;;;5.03;1.30;;;;;;;-144.22;100.00;60274.75;6230234;28;20735;-66
2022/09/02 07:59:57;;;;;;;1.13;0.97;;;;;;;-144.22;100.00;60274.75;6218704;28;20228;-65
2022/09/02 08:03:00;;;;;;;2.20;0.97;;;;;;;-144.22;100.00;60274.75;6217151;28;20243;-66
2022/09/02 08:06:08;;;;;;;1.50;0.90;;;;;;;-144.22;100.00;60274.75;6213554;28;20247;-65
2022/09/02 08:09:11;;;;;;;1.40;0.93;;;;;;;-144.22;100.00;60274.75;6212940;28;20240;-65
2022/09/02 08:12:13;;;;;;;2.50;1.07;;;;;;;-144.22;100.00;60274.75;6231065;28;20220;-65
2022/09/02 08:15:21;;;;;;;1.67;1.20;;;;;;;-144.22;100.00;60274.75;6230734;28;20231;-65
2022/09/02 08:18:23;;;;;;;1.50;0.90;;;;;;;-144.22;100.00;60274.75;6228408;28;20563;-65
2022/09/02 08:21:26;;;;;;;1.53;1.03;;;;;;;-144.22;100.00;60274.75;6230810;28;20242;-65
2022/09/02 08:24:31;;;;;;;1.50;0.90;;;;;;;-144.22;100.00;60274.75;6229903;28;20358;-65
2022/09/02 08:27:34;;;;;;;2.83;1.13;;;;;;;-144.22;100.00;60274.75;6229499;28;20227;-65
2022/09/02 08:30:36;;;;;;;1.37;0.93;;;;;;;-144.22;100.00;60274.75;6228889;28;20598;-65
2022/09/02 08:33:39;;;;;;;1.63;0.80;;;;;;;-144.22;100.00;60274.75;6212746;28;20374;-65
2022/09/02 08:36:42;;;;;;;1.40;1.00;;;;;;;-144.22;100.00;60274.75;6212587;28;20290;-66
2022/09/02 08:39:57;;;;;;;1.80;1.00;;;;;;;-144.22;100.00;60274.75;6230238;28;20514;-65
2022/09/02 08:43:00;;;;;;;1.53;0.90;;;;;;;-144.22;100.00;60274.75;6229993;28;20235;-65
2022/09/02 08:46:03;;;;;;;1.77;1.00;;;;;;;-144.22;100.00;60274.75;6229853;28;20239;-65
2022/09/02 08:49:15;;;;;;;1.77;0.90;;;;;;;-144.22;100.00;60274.75;6230604;28;20259;-66
2022/09/02 08:52:37;;;;;;;1.43;0.80;;;;;;;-144.22;100.00;60274.75;6227913;28;20340;-66
2022/09/02 08:55:47;;;;;;;1.50;1.00;;;;;;;-144.22;100.00;60274.75;6225561;28;20224;-65
2022/09/02 08:59:02;;;;;;;1.60;1.00;;;;;;;-144.22;100.00;60274.75;6222445;28;20402;-66
2022/09/02 09:02:42;;;;;;;0.63;0.63;;;;;;;-144.22;100.00;60274.75;6206699;28;20266;-65
2022/09/02 09:06:01;;;;;;;1.27;1.00;;;;;;;27.96;29.10;97850.47;6229388;28;20212;-65
2022/09/02 09:09:32;;;;;;;1.47;0.90;;;;;;;21.72;42.87;97859.53;6225564;28;20232;-65
2022/09/02 09:12:59;;;;;;;1.33;0.80;;;;;;;21.99;43.17;97864.19;6212808;28;20220;-64
2022/09/02 09:16:32;;;;;;;1.33;1.00;;;;;;;22.44;42.84;97867.53;6226747;28;20280;-65
2022/09/02 09:19:50;;;;;;;2.40;1.00;;;;;;;22.97;42.59;97859.88;6227257;28;20243;-65
2022/09/02 09:22:58;;;;;;;2.27;1.10;;;;;;;22.43;39.96;97855.09;6229017;28;20231;-65
2022/09/02 09:26:20;;;;;;;3.23;1.23;;;;;;;22.11;40.34;97866.38;6228025;28;20235;-65
2022/09/02 09:29:22;;;;;;;1.83;1.27;;;;;;;22.34;40.09;97857.09;6226734;28;20228;-64
2022/09/02 09:32:35;;;;;;;1.97;1.17;;;;;;;22.36;40.29;97856.91;6226671;28;20242;-64
2022/09/02 09:35:53;;;;;;;1.97;1.23;;;;;;;23.27;42.19;97852.41;6228338;28;20247;-64
2022/09/02 09:38:55;;;;;;;1.53;0.90;;;;;;;23.39;39.28;97848.94;6228186;28;20661;-65
2022/09/02 09:42:12;;;;;;;2.60;1.20;;;;;;;23.41;38.58;97848.75;6228516;28;20231;-64
2022/09/02 09:45:20;;;;;;;0.80;0.80;;;;;;;22.90;38.73;97842.88;6227963;28;20305;-64
2022/09/02 09:48:28;;;;;;;1.10;0.93;;;;;;;23.26;38.44;97845.38;6226306;28;20220;-65
2022/09/02 09:51:30;;;;;;;2.27;1.20;;;;;;;23.35;37.86;97838.78;6228864;28;20693;-73
2022/09/02 09:55:16;;;;;;;2.87;1.40;;;;;;;23.05;37.41;97839.03;6202900;28;20271;-65
2022/09/02 09:58:32;;;;;;;1.90;1.07;;;;;;;23.14;38.61;97832.47;6221297;28;20253;-65
2022/09/02 10:01:35;;;;;;;1.60;1.13;;;;;;;23.65;39.21;97831.28;6211721;28;20297;-64
2022/09/02 10:04:37;;;;;;;2.03;1.13;;;;;;;23.79;37.23;97836.50;6228300;28;20235;-64
2022/09/02 10:08:00;;;;;;;1.80;1.17;;;;;;;-144.22;100.00;60274.75;6225208;28;20808;-65
2022/09/02 10:11:07;;;;;;;3.90;1.20;;;;;;;-144.22;100.00;60274.75;6226277;28;20309;-65
2022/09/02 10:14:10;;;;;;;3.03;1.10;;;;;;;23.67;100.00;80937.06;6227864;28;20232;-64
2022/09/02 10:17:39;;;;;;;1.83;0.90;;;;;;;-144.22;100.00;60274.75;6227495;28;20271;-65
2022/09/02 10:21:13;;;;;;;1.27;1.00;;;;;;;-144.22;100.00;60274.75;6227918;28;20267;-65
2022/09/02 10:24:29;;;;;;;2.53;1.10;;;;;;;-144.22;100.00;60274.75;6212233;28;20373;-65
2022/09/02 10:27:59;;;;;;;1.90;0.83;;;;;;;-144.22;100.00;60274.75;6226733;28;20610;-65
2022/09/02 10:31:22;;;;;;;2.88;1.02;;;;;;;-144.22;100.00;60274.75;6225401;28;20239;-64
2022/09/02 10:34:32;;;;;;;2.38;0.82;;;;;;;-144.22;100.00;60274.75;6215730;28;20247;-64
2022/09/02 10:37:45;;;;;;;2.00;1.10;;;;;;;-144.22;100.00;60274.75;6227102;28;20250;-64
2022/09/02 10:40:55;;;;;;;2.65;0.93;;;;;;;-144.22;100.00;60274.75;6229237;28;20270;-65
2022/09/02 10:44:19;;;;;;;1.17;1.00;;;;;;;-144.22;100.00;60274.75;6230552;28;20245;-65
2022/09/02 10:47:46;;;;;;;2.77;1.10;;;;;;;-144.22;100.00;60274.75;6232471;28;20811;-64
2022/09/02 10:51:09;;;;;;;1.60;1.08;;;;;;;-144.22;100.00;60274.75;6231489;28;20232;-65
2022/09/02 10:54:55;;;;;;;1.30;1.20;;;;;;;-144.22;100.00;60274.75;6228545;28;20417;-64
2022/09/02 10:58:01;;;;;;;2.53;0.93;;;;;;;-144.22;100.00;60274.75;6231593;28;20295;-65
2022/09/02 11:01:09;;;;;;;2.90;1.10;;;;;;;-144.22;100.00;60274.75;6212771;28;20243;-66
2022/09/02 11:04:38;;;;;;;1.85;1.27;;;;;;;-144.22;100.00;60274.75;6207520;28;20314;-65
2022/09/02 11:07:54;;;;;;;1.58;1.20;;;;;;;-144.22;100.00;60274.75;6220740;28;20224;-65
2022/09/02 11:11:21;;;;;;;1.60;1.27;;;;;;;-144.22;100.00;60274.75;6223573;28;20406;-65
2022/09/02 11:14:33;;;;;;;3.05;1.30;;;;;;;-144.22;100.00;60274.75;6224000;28;20371;-65
2022/09/02 11:17:55;;;;;;;1.70;0.90;;;;;;;-144.22;100.00;60274.75;6222436;28;20243;-65
2022/09/02 11:21:33;;;;;;;2.80;1.52;;;;;;;-144.22;100.00;60274.75;6222763;28;20232;-66
2022/09/02 11:24:54;;;;;;;2.47;1.20;;;;;;;-144.22;100.00;60274.75;6232544;28;20264;-65
2022/09/02 11:28:24;;;;;;;2.28;1.10;;;;;;;-144.22;100.00;60274.75;6226978;28;20225;-65
2022/09/02 11:31:46;;;;;;;2.20;1.20;;;;;;;-144.22;100.00;60274.75;6221015;28;20227;-65
2022/09/02 11:34:51;;;;;;;1.38;1.10;;;;;;;-144.22;100.00;60274.75;6224698;28;20239;-65
2022/09/02 11:38:00;;;;;;;1.80;1.08;;;;;;;-144.22;100.00;60274.75;6230646;28;20723;-66
2022/09/02 11:41:39;;;;;;;3.17;1.30;;;;;;;-144.22;100.00;60274.75;6230248;28;20655;-65
2022/09/02 11:45:06;;;;;;;3.20;1.17;;;;;;;-144.22;100.00;60274.75;6229506;28;20600;-65
2022/09/02 11:48:32;;;;;;;1.65;1.20;;;;;;;-144.22;100.00;60274.75;6213108;28;20238;-65
2022/09/02 11:52:00;;;;;;;1.60;1.00;;;;;;;-144.22;100.00;60274.75;6230019;28;20265;-65
2022/09/02 11:55:15;;;;;;;1.85;1.05;;;;;;;-144.22;100.00;60274.75;6226215;28;20354;-65
2022/09/02 11:58:33;;;;;;;1.08;0.90;;;;;;;-144.22;100.00;60274.75;6229146;28;20259;-65
2022/09/02 12:01:53;;;;;;;3.08;1.23;;;;;;;-144.22;100.00;60274.75;6215015;28;20274;-65
2022/09/02 12:05:29;;;;;;;3.25;1.35;;;;;;;-144.22;100.00;60274.75;6229971;28;20754;-65
2022/09/02 12:08:35;;;;;;;1.80;0.80;;;;;;;-144.22;100.00;60274.75;6230421;28;20216;-66
2022/09/02 12:11:47;;;;;;;3.40;1.20;;;;;;;-144.22;100.00;60274.75;6226744;28;20255;-66
2022/09/02 12:14:49;;;;;;;1.50;1.10;;;;;;;-144.22;100.00;60274.75;6227652;28;20327;-66
2022/09/02 12:17:52;;;;;;;1.05;0.90;;;;;;;-144.22;100.00;60274.75;6213073;28;20711;-68
2022/09/02 12:20:57;;;;;;;2.78;1.00;;;;;;;-144.22;100.00;60274.75;6229863;28;20236;-68
2022/09/02 12:24:02;;;;;;;2.88;1.13;;;;;;;-144.22;100.00;60274.75;6229149;28;20235;-68
2022/09/02 12:27:07;;;;;;;1.95;1.08;;;;;;;-144.22;100.00;60274.75;6211267;28;20273;-68
2022/09/02 12:30:11;;;;;;;2.08;1.52;;;;;;;-144.22;100.00;60274.75;6228891;28;20696;-68
2022/09/02 12:33:28;;;;;;;1.30;1.00;;;;;;;-144.22;100.00;60274.75;6212541;28;20679;-68
2022/09/02 12:36:40;;;;;;;2.05;0.90;;;;;;;27.06;27.81;97733.75;6229850;28;20769;-68
2022/09/02 12:39:52;;;;;;;2.55;1.27;;;;;;;27.28;26.59;97736.81;6232491;28;20323;-66
2022/09/02 12:42:59;;;;;;;1.27;0.90;;;;;;;-144.22;100.00;60274.75;6229941;28;20230;-67
2022/09/02 12:46:33;;;;;;;1.08;0.80;;;;;;;63.28;100.00;60274.75;6231496;28;20303;-68
2022/09/02 12:50:05;;;;;;;2.28;1.02;;;;;;;-144.22;100.00;60274.75;6204891;28;20765;-67
2022/09/02 12:53:11;;;;;;;1.92;1.10;;;;;;;28.92;100.00;60274.75;6226828;28;20223;-66
2022/09/02 12:56:23;;;;;;;1.15;0.80;;;;;;;-144.22;100.00;60274.75;6228763;28;20242;-67
2022/09/02 12:59:33;;;;;;;1.10;0.93;;;;;;;-144.22;100.00;60274.75;6208375;28;20702;-64
2022/09/02 13:02:48;;;;;;;2.47;1.00;;;;;;;29.21;100.00;60274.75;6223025;28;20236;-67
2022/09/02 13:06:07;;;;;;;1.88;1.20;;;;;;;-144.22;100.00;60274.75;6202607;28;20306;-67
2022/09/02 13:09:39;;;;;;;0.80;0.80;;;;;;;-144.22;100.00;60274.75;6220078;28;20228;-66
2022/09/02 13:13:03;;;;;;;1.45;1.10;;;;;;;30.50;100.00;60274.75;6227765;28;20723;-64
2022/09/02 13:16:10;;;;;;;1.70;0.90;;;;;;;-144.22;100.00;60274.75;6226842;28;20696;-64
2022/09/02 13:19:29;;;;;;;3.03;1.00;;;;;;;29.67;100.00;60274.75;6228354;28;20235;-64
2022/09/02 13:22:45;;;;;;;1.45;0.98;;;;;;;-144.22;100.00;60274.75;6228287;28;20232;-64
2022/09/02 13:26:05;;;;;;;2.22;1.05;;;;;;;30.34;100.00;60274.75;6228251;28;20227;-64
2022/09/02 13:29:26;;;;;;;1.65;1.00;;;;;;;-144.22;100.00;60274.75;6211782;28;20598;-64
2022/09/02 13:32:33;;;;;;;1.05;0.80;;;;;;;-144.22;100.00;60274.75;6210861;28;20228;-64
2022/09/02 13:35:39;;;;;;;2.85;1.17;;;;;;;-144.22;100.00;60274.75;6228282;28;20240;-64
2022/09/02 13:38:41;;;;;;;1.55;0.93;;;;;;;34.31;18.61;97681.81;6228713;28;20318;-65
2022/09/02 13:41:44;;;;;;;2.03;1.10;;;;;;;35.91;17.68;97687.25;6210180;28;20236;-62
2022/09/02 13:44:46;;;;;;;1.92;1.45;;;;;;;34.95;17.32;97677.56;6227701;28;20273;-65
2022/09/02 13:47:52;;;;;;;2.58;1.15;;;;;;;35.76;16.78;97689.00;6223318;28;20385;-63
2022/09/02 13:50:57;;;;;;;2.03;1.30;;;;;;;36.15;16.33;97679.91;6225170;28;20232;-64
2022/09/02 13:53:59;;;;;;;8.40;6.30;;;;;;;36.74;16.27;97681.59;6228327;28;20228;-62
2022/09/02 13:57:25;;;;;;;3.53;1.30;;;;;;;36.11;16.53;97676.94;6225316;28;20236;-62
2022/09/02 14:00:33;;;;;;;1.40;0.98;;;;;;;32.95;18.57;97674.88;6230101;28;20232;-64
2022/09/02 14:03:37;;;;;;;1.83;1.48;;;;;;;30.37;22.43;97674.94;6228999;28;20286;-63
2022/09/02 14:06:43;;;;;;;2.25;0.93;;;;;;;32.07;20.67;97673.72;6228716;28;20607;-62
2022/09/02 14:09:46;;;;;;;1.13;0.88;;;;;;;34.97;17.59;97662.47;6204203;28;20718;-62
2022/09/02 14:12:49;;;;;;;1.42;1.00;;;;;;;32.60;20.14;97671.94;6225529;28;20700;-63
2022/09/02 14:15:52;;;;;;;1.23;0.75;;;;;;;30.61;23.15;97672.88;6211306;28;20713;-63
2022/09/02 14:19:03;;;;;;;3.75;0.90;;;;;;;29.90;24.49;97672.53;6228034;28;20242;-63
2022/09/02 14:22:27;;;;;;;0.93;0.80;;;;;;;29.12;24.38;97664.25;6227386;28;20231;-65
2022/09/02 14:25:37;;;;;;;5.35;4.65;;;;;;;28.44;24.73;97665.78;6228534;28;20236;-63
2022/09/02 14:28:39;;;;;;;2.75;2.40;;;;;;;28.44;24.31;97665.78;6227767;28;20242;-63